Time;durP1;ratioP1;P1;durP2;ratioP2;P2;SDS_P1;SDS_P2;PMS_P1;PMS_P2;Temp;Humidity;BMP_temperature;BMP_pressure;BME280_temperature;BME280_humidity;BME280_pressure;Samples;Min_cycle;Max_cycle;Signal;HPM_P1;HPM_P2
2021/07/03 00:02:50;;;;;;;6.43;5.00;;;19.10;91.90;;;;;;6353966;28;20233;-67
2021/07/03 00:05:53;;;;;;;5.70;4.77;;;19.20;92.00;;;;;;6353468;27;20566;-67
2021/07/03 00:08:56;;;;;;;5.27;4.87;;;19.20;92.00;;;;;;6362916;27;20236;-67
2021/07/03 00:12:02;;;;;;;5.60;5.10;;;19.20;92.10;;;;;;6369720;27;21002;-67
2021/07/03 00:15:09;;;;;;;7.07;4.87;;;19.20;92.10;;;;;;6353269;28;20221;-66
2021/07/03 00:18:13;;;;;;;4.60;3.67;;;19.20;92.10;;;;;;6354179;28;20229;-67
2021/07/03 00:21:17;;;;;;;5.33;4.30;;;19.20;92.10;;;;;;6344085;28;20229;-68
2021/07/03 00:24:20;;;;;;;5.60;5.10;;;19.30;92.40;;;;;;6365777;27;20470;-68
2021/07/03 00:27:23;;;;;;;5.10;4.60;;;19.20;92.30;;;;;;6365790;27;20226;-68
2021/07/03 00:30:28;;;;;;;6.17;5.53;;;19.20;92.60;;;;;;6353250;28;20482;-68
2021/07/03 00:33:31;;;;;;;5.37;4.87;;;19.20;92.80;;;;;;6353012;27;20229;-69
2021/07/03 00:36:34;;;;;;;4.70;4.30;;;19.10;93.20;;;;;;6353080;28;20580;-68
2021/07/03 00:39:37;;;;;;;6.03;4.37;;;19.10;93.20;;;;;;6367718;27;20670;-70
2021/07/03 00:42:41;;;;;;;5.00;4.47;;;19.10;93.10;;;;;;6363255;27;20244;-67
2021/07/03 00:45:46;;;;;;;5.37;4.87;;;19.10;93.20;;;;;;6352551;27;20467;-67
2021/07/03 00:48:49;;;;;;;5.67;5.23;;;19.10;93.30;;;;;;6352032;28;20464;-68
2021/07/03 00:51:53;;;;;;;5.13;4.70;;;19.20;93.30;;;;;;6352504;28;20229;-67
2021/07/03 00:54:56;;;;;;;6.20;4.93;;;19.10;93.30;;;;;;6370006;27;20670;-68
2021/07/03 00:57:59;;;;;;;5.33;4.83;;;19.20;93.40;;;;;;6360277;27;20254;-69
2021/07/03 01:01:04;;;;;;;5.10;4.70;;;19.10;93.40;;;;;;6352219;28;20467;-67
2021/07/03 01:04:07;;;;;;;5.17;4.63;;;19.10;93.60;;;;;;6352056;28;20719;-67
2021/07/03 01:07:12;;;;;;;5.40;4.87;;;19.10;93.70;;;;;;6352172;28;20229;-68
2021/07/03 01:10:21;;;;;;;7.33;5.00;;;19.00;93.70;;;;;;6372350;27;20232;-68
2021/07/03 01:13:29;;;;;;;5.00;4.57;;;18.90;93.60;;;;;;6356496;27;20984;-68
2021/07/03 01:16:34;;;;;;;6.07;5.30;;;18.90;93.80;;;;;;6351930;27;20468;-68
2021/07/03 01:19:37;;;;;;;5.30;4.90;;;18.90;93.90;;;;;;6351921;28;20486;-68
2021/07/03 01:22:44;;;;;;;5.43;5.00;;;19.00;94.00;;;;;;6352211;28;20244;-67
2021/07/03 01:25:47;;;;;;;5.10;4.60;;;19.00;93.90;;;;;;6376546;27;20470;-67
2021/07/03 01:28:50;;;;;;;5.60;5.10;;;19.00;93.90;;;;;;6352349;27;20502;-68
2021/07/03 01:31:57;;;;;;;6.90;5.20;;;19.00;94.00;;;;;;6351366;27;20226;-67
2021/07/03 01:35:00;;;;;;;5.43;4.93;;;19.00;94.00;;;;;;6351976;27;20454;-68
2021/07/03 01:38:04;;;;;;;5.20;4.80;;;19.00;93.90;;;;;;6353026;27;20201;-67
2021/07/03 01:41:08;;;;;;;6.37;5.77;;;19.00;93.80;;;;;;6374976;27;20212;-67
2021/07/03 01:44:12;;;;;;;7.43;6.53;;;18.90;94.60;;;;;;6350890;28;20486;-67
2021/07/03 01:47:15;;;;;;;7.40;6.70;;;18.90;95.40;;;;;;6351538;28;20239;-68
2021/07/03 01:50:18;;;;;;;6.73;6.20;;;18.80;96.30;;;;;;6351352;28;21012;-70
2021/07/03 01:53:23;;;;;;;7.60;6.53;;;18.80;96.50;;;;;;6355453;27;20454;-68
2021/07/03 01:56:27;;;;;;;6.70;6.10;;;18.70;97.40;;;;;;6372710;27;20229;-67
2021/07/03 01:59:32;;;;;;;5.90;5.40;;;18.50;97.80;;;;;;6351332;28;20470;-67
2021/07/03 02:02:35;;;;;;;7.77;6.40;;;18.60;98.20;;;;;;6350594;28;20463;-67
2021/07/03 02:05:39;;;;;;;6.47;5.87;;;18.50;98.60;;;;;;6350746;27;20831;-67
2021/07/03 02:08:44;;;;;;;5.90;5.10;;;18.60;98.70;;;;;;6358250;27;20469;-66
2021/07/03 02:11:47;;;;;;;6.50;5.73;;;18.60;98.80;;;;;;6368853;27;20463;-68
2021/07/03 02:14:51;;;;;;;7.10;6.40;;;18.60;98.90;;;;;;6350328;28;20471;-68
2021/07/03 02:17:54;;;;;;;8.10;6.70;;;18.60;98.90;;;;;;6350403;28;20221;-68
2021/07/03 02:20:57;;;;;;;6.57;5.97;;;18.70;99.00;;;;;;6350764;28;20781;-68
2021/07/03 02:24:02;;;;;;;7.07;6.47;;;18.70;99.10;;;;;;6359775;27;20462;-67
2021/07/03 02:27:05;;;;;;;9.10;7.23;;;18.70;99.20;;;;;;6365877;27;20468;-68
2021/07/03 02:30:11;;;;;;;7.33;6.53;;;18.60;99.10;;;;;;6345428;28;20478;-68
2021/07/03 02:33:15;;;;;;;6.70;6.10;;;18.60;99.00;;;;;;6350325;28;20843;-68
2021/07/03 02:36:18;;;;;;;6.70;6.10;;;18.50;99.30;;;;;;6349832;28;20481;-68
2021/07/03 02:39:22;;;;;;;7.17;6.10;;;18.40;99.50;;;;;;6362456;27;20479;-68
2021/07/03 02:42:26;;;;;;;7.17;6.47;;;18.40;99.60;;;;;;6362697;27;20479;-68
2021/07/03 02:45:29;;;;;;;6.63;6.03;;;18.40;99.60;;;;;;6349625;28;20478;-68
2021/07/03 02:48:32;;;;;;;6.50;5.90;;;18.40;99.70;;;;;;6349602;28;20494;-68
2021/07/03 02:51:35;;;;;;;6.23;5.53;;;18.40;99.80;;;;;;6348474;28;20463;-66
2021/07/03 02:54:40;;;;;;;8.43;6.30;;;18.30;99.90;;;;;;6358693;27;20463;-65
2021/07/03 02:57:43;;;;;;;5.80;5.30;;;18.30;99.90;;;;;;6357933;27;20467;-66
2021/07/03 03:00:47;;;;;;;5.70;5.20;;;18.30;99.90;;;;;;6347377;28;20456;-65
2021/07/03 03:03:50;;;;;;;6.73;5.20;;;18.20;99.90;;;;;;6347040;28;20471;-65
2021/07/03 03:06:53;;;;;;;6.40;5.33;;;18.20;99.90;;;;;;6349385;28;20793;-68
2021/07/03 03:09:57;;;;;;;8.20;5.30;;;18.20;99.90;;;;;;6348717;28;20467;-69
2021/07/03 03:13:01;;;;;;;9.97;7.03;;;18.10;99.90;;;;;;6348307;28;20960;-67
2021/07/03 03:16:04;;;;;;;6.10;5.60;;;18.00;99.90;;;;;;6366238;27;20473;-67
2021/07/03 03:19:08;;;;;;;6.60;5.00;;;18.00;99.90;;;;;;6353085;27;20467;-67
2021/07/03 03:22:11;;;;;;;6.07;5.43;;;17.90;99.90;;;;;;6349058;28;20545;-70
2021/07/03 03:25:15;;;;;;;7.23;5.20;;;17.80;99.90;;;;;;6349110;28;20784;-66
2021/07/03 03:28:18;;;;;;;6.00;5.43;;;17.80;99.90;;;;;;6349108;28;20490;-66
2021/07/03 03:31:22;;;;;;;7.60;5.23;;;17.80;99.90;;;;;;6369595;27;20477;-65
2021/07/03 03:34:25;;;;;;;6.93;6.23;;;17.80;99.90;;;;;;6353266;27;20545;-66
2021/07/03 03:37:28;;;;;;;7.40;6.03;;;17.80;99.90;;;;;;6348956;28;20467;-65
2021/07/03 03:40:33;;;;;;;6.03;5.37;;;17.80;99.90;;;;;;6349170;28;20467;-62
2021/07/03 03:43:39;;;;;;;5.80;5.30;;;17.80;99.90;;;;;;6348663;28;20486;-63
2021/07/03 03:46:43;;;;;;;9.17;5.80;;;17.80;99.90;;;;;;6372637;27;20538;-67
2021/07/03 03:49:47;;;;;;;6.67;6.07;;;17.80;99.90;;;;;;6350638;27;20488;-66
2021/07/03 03:52:51;;;;;;;6.67;6.03;;;17.80;99.90;;;;;;6349020;28;20493;-66
2021/07/03 03:55:55;;;;;;;8.37;6.50;;;17.80;99.90;;;;;;6348453;28;20482;-66
2021/07/03 03:58:58;;;;;;;6.00;5.50;;;17.80;99.90;;;;;;6349313;27;20455;-66
2021/07/03 04:02:02;;;;;;;6.50;5.83;;;17.80;99.90;;;;;;6373107;27;20457;-65
2021/07/03 04:05:07;;;;;;;8.20;6.40;;;17.90;99.90;;;;;;6348789;28;20503;-66
2021/07/03 04:08:11;;;;;;;8.00;6.57;;;17.80;99.90;;;;;;6348612;28;20444;-66
2021/07/03 04:11:16;;;;;;;7.13;6.43;;;17.80;99.90;;;;;;6348876;28;20447;-69
2021/07/03 04:14:19;;;;;;;6.90;6.20;;;17.80;99.90;;;;;;6351804;27;20454;-68
2021/07/03 04:17:22;;;;;;;7.37;6.63;;;17.90;99.90;;;;;;6370182;27;20956;-68
2021/07/03 04:20:25;;;;;;;6.73;6.13;;;17.90;99.90;;;;;;6348953;28;20474;-62
2021/07/03 04:23:29;;;;;;;6.83;6.10;;;17.90;99.90;;;;;;6348708;28;20463;-64
2021/07/03 04:26:34;;;;;;;7.53;5.73;;;18.00;99.90;;;;;;6352621;28;20478;-63
2021/07/03 04:29:37;;;;;;;9.03;7.17;;;18.10;99.90;;;;;;6358430;27;20473;-63
2021/07/03 04:32:40;;;;;;;7.47;6.17;;;18.20;99.90;;;;;;6372243;27;20458;-63
2021/07/03 04:35:44;;;;;;;6.70;6.10;;;18.30;99.90;;;;;;6342975;27;20471;-63
2021/07/03 04:38:47;;;;;;;6.80;6.20;;;18.50;99.90;;;;;;6352865;28;20912;-63
2021/07/03 04:41:52;;;;;;;8.17;7.47;;;18.50;99.90;;;;;;6352588;28;20471;-64
2021/07/03 04:44:55;;;;;;;6.93;6.30;;;18.60;99.90;;;;;;6361114;27;20477;-63
2021/07/03 04:47:59;;;;;;;7.17;6.47;;;18.70;99.90;;;;;;6369268;27;20804;-63
2021/07/03 04:51:02;;;;;;;8.23;6.97;;;18.70;99.90;;;;;;6352520;27;20804;-63
2021/07/03 04:54:05;;;;;;;6.17;5.60;;;18.80;99.90;;;;;;6352451;27;20474;-64
2021/07/03 04:57:11;;;;;;;7.50;6.80;;;18.80;99.90;;;;;;6352212;28;20463;-64
2021/07/03 05:00:15;;;;;;;7.60;6.93;;;18.90;99.90;;;;;;6362953;27;20982;-64
2021/07/03 05:03:18;;;;;;;7.40;6.70;;;19.00;99.90;;;;;;6366249;27;20229;-64
2021/07/03 05:06:22;;;;;;;7.80;6.47;;;19.10;99.90;;;;;;6351982;27;20229;-64
2021/07/03 05:09:25;;;;;;;8.07;7.27;;;19.20;99.90;;;;;;6351969;28;20229;-63
2021/07/03 05:12:30;;;;;;;8.00;7.20;;;19.30;99.90;;;;;;6352045;28;20800;-63
2021/07/03 05:15:33;;;;;;;7.70;6.97;;;19.40;99.90;;;;;;6365156;27;20467;-64
2021/07/03 05:18:36;;;;;;;7.73;6.67;;;19.50;99.90;;;;;;6363455;27;20236;-63
2021/07/03 05:21:39;;;;;;;8.00;7.30;;;19.70;99.90;;;;;;6351516;28;20225;-64
2021/07/03 05:24:43;;;;;;;7.60;7.00;;;19.80;99.70;;;;;;6351772;28;20251;-63
2021/07/03 05:27:47;;;;;;;7.03;6.40;;;19.90;99.50;;;;;;6351546;28;20225;-64
2021/07/03 05:30:52;;;;;;;8.30;7.50;;;20.00;99.30;;;;;;6367649;27;20228;-63
2021/07/03 05:33:55;;;;;;;7.10;6.40;;;20.00;98.90;;;;;;6360115;27;20233;-64
2021/07/03 05:36:58;;;;;;;7.60;6.90;;;20.10;98.50;;;;;;6351158;27;20236;-63
2021/07/03 05:40:02;;;;;;;7.23;6.53;;;20.20;98.10;;;;;;6342417;28;20225;-62
2021/07/03 05:43:06;;;;;;;5.70;5.20;;;20.30;98.10;;;;;;6351325;28;20234;-63
2021/07/03 05:46:10;;;;;;;6.30;5.70;;;20.40;97.70;;;;;;6369958;27;20229;-63
2021/07/03 05:49:16;;;;;;;7.20;6.23;;;20.50;97.30;;;;;;6357361;27;20678;-63
2021/07/03 05:52:19;;;;;;;6.40;5.80;;;20.70;97.10;;;;;;6351480;28;20544;-64
2021/07/03 05:55:23;;;;;;;8.87;7.70;;;20.90;95.80;;;;;;6350475;28;20236;-63
2021/07/03 05:58:28;;;;;;;12.00;6.60;;;21.00;95.10;;;;;;6350577;28;20229;-63
2021/07/03 06:01:31;;;;;;;7.10;6.40;;;21.20;93.80;;;;;;6372494;27;20254;-64
2021/07/03 06:04:35;;;;;;;7.33;6.40;;;21.50;93.60;;;;;;6353644;27;20253;-64
2021/07/03 06:07:38;;;;;;;6.60;5.90;;;21.70;92.40;;;;;;6350337;28;20240;-62
2021/07/03 06:10:41;;;;;;;7.10;6.40;;;22.10;90.80;;;;;;6350754;28;20225;-64
2021/07/03 06:13:46;;;;;;;6.10;5.57;;;22.30;90.80;;;;;;6349866;27;20542;-64
2021/07/03 06:16:49;;;;;;;6.67;6.03;;;22.70;90.90;;;;;;6374538;27;20225;-63
2021/07/03 06:19:52;;;;;;;7.00;6.40;;;23.20;87.30;;;;;;6349821;27;20623;-68
2021/07/03 06:22:56;;;;;;;8.27;6.03;;;23.30;85.10;;;;;;6349369;28;20236;-70
2021/07/03 06:26:00;;;;;;;5.87;5.43;;;23.70;83.90;;;;;;6374633;27;20217;-64
2021/07/03 06:29:04;;;;;;;7.67;6.13;;;24.50;82.00;;;;;;6349996;28;20212;-67
2021/07/03 06:32:08;;;;;;;9.87;6.10;;;25.30;77.60;;;;;;6350273;28;20216;-67
2021/07/03 06:35:12;;;;;;;6.30;5.37;;;26.00;72.30;;;;;;6349675;28;20218;-66
2021/07/03 06:38:15;;;;;;;6.13;5.53;;;26.50;68.40;;;;;;6352852;27;20205;-66
2021/07/03 06:41:18;;;;;;;7.33;4.90;;;26.90;64.30;;;;;;6367927;27;20630;-67
2021/07/03 06:44:23;;;;;;;6.00;5.47;;;27.20;61.00;;;;;;6349580;28;20225;-63
2021/07/03 06:47:26;;;;;;;5.33;4.70;;;27.50;58.50;;;;;;6348644;27;20310;-63
2021/07/03 06:50:29;;;;;;;6.43;5.50;;;28.00;56.90;;;;;;6349819;28;20613;-63
2021/07/03 06:53:33;;;;;;;6.20;5.33;;;28.50;55.80;;;;;;6354678;27;20224;-63
2021/07/03 06:56:36;;;;;;;5.73;5.23;;;29.10;54.50;;;;;;6369968;27;20224;-63
2021/07/03 06:59:41;;;;;;;6.33;5.70;;;29.80;52.40;;;;;;6349464;28;20271;-68
2021/07/03 07:02:44;;;;;;;8.80;5.63;;;30.60;50.90;;;;;;6349500;28;20239;-69
2021/07/03 07:05:48;;;;;;;4.90;4.50;;;30.80;48.90;;;;;;6349502;28;20224;-68
2021/07/03 07:08:51;;;;;;;5.00;4.27;;;31.70;46.10;;;;;;6356960;27;20224;-69
2021/07/03 07:11:57;;;;;;;4.60;4.20;;;32.30;44.80;;;;;;6367170;27;20255;-68
2021/07/03 07:15:01;;;;;;;6.47;5.00;;;32.50;41.90;;;;;;6349093;28;20255;-68
2021/07/03 07:18:04;;;;;;;4.75;4.40;;;33.00;41.00;;;;;;6349502;27;20229;-69
2021/07/03 07:21:23;;;;;;;5.35;4.50;;;33.30;40.20;;;;;;6349071;28;20250;-68
2021/07/03 07:24:26;;;;;;;4.30;4.00;;;33.60;37.70;;;;;;6361962;27;20566;-70
2021/07/03 07:27:29;;;;;;;5.22;4.82;;;33.90;37.10;;;;;;6361483;27;20550;-69
2021/07/03 07:30:34;;;;;;;5.13;4.65;;;34.30;37.30;;;;;;6349109;28;20708;-68
2021/07/03 07:33:37;;;;;;;5.88;4.95;;;34.80;36.40;;;;;;6349087;28;20700;-68
2021/07/03 07:36:40;;;;;;;5.38;4.93;;;35.30;36.70;;;;;;6348972;28;20221;-68
2021/07/03 07:39:44;;;;;;;5.13;4.63;;;35.30;36.30;;;;;;6348398;28;20224;-69
2021/07/03 07:42:47;;;;;;;4.97;4.57;;;35.80;35.80;;;;;;6347841;28;20220;-68
2021/07/03 07:45:55;;;;;;;6.05;5.15;;;36.30;35.00;;;;;;6335000;28;20232;-69
2021/07/03 07:48:59;;;;;;;5.18;4.78;;;36.10;34.40;;;;;;6364774;27;20220;-69
2021/07/03 07:52:03;;;;;;;5.28;4.78;;;35.70;34.30;;;;;;6355361;27;20228;-69
2021/07/03 07:55:07;;;;;;;4.30;4.00;;;35.00;32.10;;;;;;6346719;28;20282;-68
2021/07/03 07:58:10;;;;;;;4.97;4.57;;;34.30;32.70;;;;;;6345387;28;20251;-70
2021/07/03 08:01:15;;;;;;;4.97;4.53;;;33.60;33.50;;;;;;6371658;27;20239;-71
2021/07/03 08:04:18;;;;;;;5.05;4.65;;;33.40;35.10;;;;;;6357882;27;20225;-71
2021/07/03 08:07:21;;;;;;;4.82;4.50;;;33.10;35.30;;;;;;6352987;28;20783;-70
2021/07/03 08:10:27;;;;;;;6.80;6.20;;;32.40;36.20;;;;;;6353792;28;20235;-68
2021/07/03 08:13:30;;;;;;;4.93;4.53;;;32.00;37.20;;;;;;6352280;27;20236;-68
2021/07/03 08:16:35;;;;;;;3.50;3.30;;;31.40;36.80;;;;;;6374780;27;20216;-68
2021/07/03 08:19:39;;;;;;;4.97;4.35;;;31.00;36.00;;;;;;6355804;27;20221;-68
2021/07/03 08:22:42;;;;;;;6.97;3.80;;;30.50;36.20;;;;;;6353242;28;20235;-69
2021/07/03 08:25:46;;;;;;;3.87;3.57;;;30.20;37.00;;;;;;6352097;28;20233;-69
2021/07/03 08:28:49;;;;;;;4.23;3.87;;;29.80;36.90;;;;;;6352359;28;20220;-66
2021/07/03 08:31:53;;;;;;;4.23;3.93;;;29.60;37.80;;;;;;6371600;27;20573;-69
2021/07/03 08:34:56;;;;;;;4.43;4.03;;;29.50;39.30;;;;;;6353574;27;20243;-68
2021/07/03 08:38:00;;;;;;;4.30;3.90;;;29.30;39.00;;;;;;6353541;27;20247;-69
2021/07/03 08:41:03;;;;;;;4.03;3.73;;;29.30;39.20;;;;;;6378927;27;20207;-67
2021/07/03 08:44:08;;;;;;;3.83;3.33;;;29.40;39.00;;;;;;6377995;27;20244;-68
2021/07/03 08:47:13;;;;;;;4.30;4.00;;;29.50;38.50;;;;;;6378151;27;20558;-69
2021/07/03 08:50:20;;;;;;;3.93;3.53;;;29.50;37.40;;;;;;6378457;27;20224;-68
2021/07/03 08:53:23;;;;;;;4.67;4.20;;;29.50;38.70;;;;;;6378143;27;20532;-68
2021/07/03 08:56:26;;;;;;;4.50;4.10;;;29.60;38.70;;;;;;6378247;27;20231;-68
2021/07/03 08:59:30;;;;;;;3.97;3.67;;;29.50;37.50;;;;;;6377858;27;20234;-68
2021/07/03 09:02:36;;;;;;;16.37;4.93;;;29.40;38.30;;;;;;6378757;27;20220;-68
2021/07/03 09:05:41;;;;;;;3.63;3.33;;;29.60;38.20;;;;;;6377928;27;20239;-70
2021/07/03 09:08:52;;;;;;;4.20;3.80;;;29.80;37.40;;;;;;6378093;27;20246;-69
2021/07/03 09:11:55;;;;;;;4.90;4.40;;;29.80;37.20;;;;;;6377075;27;20231;-68
2021/07/03 09:15:09;;;;;;;4.00;3.70;;;29.70;37.90;;;;;;6378016;27;20220;-68
2021/07/03 09:18:16;;;;;;;4.13;3.80;;;29.60;38.00;;;;;;6377651;27;20702;-68
2021/07/03 09:21:21;;;;;;;4.37;3.97;;;29.50;37.80;;;;;;6377972;27;20220;-69
2021/07/03 09:24:31;;;;;;;4.37;3.97;;;29.40;37.50;;;;;;6377455;27;20230;-68
2021/07/03 09:27:34;;;;;;;4.43;4.13;;;29.40;37.60;;;;;;6377457;27;20666;-68
2021/07/03 09:30:37;;;;;;;5.00;4.30;;;29.40;38.30;;;;;;6370430;27;20677;-68
2021/07/03 09:33:46;;;;;;;5.93;4.20;;;29.30;37.90;;;;;;6362216;27;20224;-68
2021/07/03 09:36:50;;;;;;;3.93;3.63;;;29.30;38.30;;;;;;6356474;27;20213;-69
2021/07/03 09:40:04;;;;;;;3.90;3.50;;;29.30;38.10;;;;;;6350811;27;20666;-69
2021/07/03 09:43:11;;;;;;;3.93;3.53;;;29.40;37.90;;;;;;6348061;27;20233;-69
2021/07/03 09:46:21;;;;;;;4.20;3.73;;;29.40;37.80;;;;;;6350901;28;20240;-69
2021/07/03 09:49:28;;;;;;;4.57;4.13;;;29.10;38.50;;;;;;6350131;28;20561;-67
2021/07/03 09:52:32;;;;;;;4.10;3.80;;;29.00;38.70;;;;;;6350606;27;20556;-67
2021/07/03 09:55:37;;;;;;;4.40;4.10;;;29.10;38.70;;;;;;6350536;27;20303;-72
2021/07/03 09:58:44;;;;;;;4.70;3.60;;;29.20;38.70;;;;;;6351393;28;20560;-68
2021/07/03 10:01:48;;;;;;;4.50;4.20;;;29.00;40.60;;;;;;6350899;28;20225;-67
2021/07/03 10:04:52;;;;;;;4.73;4.33;;;28.90;41.60;;;;;;6351439;28;20236;-68
2021/07/03 10:08:03;;;;;;;4.50;4.10;;;28.70;41.30;;;;;;6350976;28;20244;-67
2021/07/03 10:11:09;;;;;;;5.20;4.80;;;28.50;41.70;;;;;;6351435;28;20227;-68
2021/07/03 10:14:13;;;;;;;5.20;4.63;;;28.30;41.90;;;;;;6350808;28;20251;-67
2021/07/03 10:17:23;;;;;;;4.57;4.23;;;28.30;41.70;;;;;;6350873;28;20208;-69
2021/07/03 10:20:33;;;;;;;5.20;4.70;;;28.50;41.40;;;;;;6350678;28;20229;-68
2021/07/03 10:23:37;;;;;;;4.73;4.13;;;28.60;41.60;;;;;;6351696;27;20685;-69
2021/07/03 10:26:41;;;;;;;3.90;3.60;;;28.80;39.60;;;;;;6360564;27;20225;-73
2021/07/03 10:29:45;;;;;;;3.90;3.60;;;28.60;38.90;;;;;;6333677;28;20658;-72
2021/07/03 10:32:56;;;;;;;3.77;3.47;;;28.50;39.30;;;;;;6350664;28;20229;-65
2021/07/03 10:36:02;;;;;;;4.73;4.17;;;28.70;38.80;;;;;;6325065;28;20260;-64
2021/07/03 10:39:06;;;;;;;4.40;4.00;;;29.00;38.70;;;;;;6334524;28;20697;-67
2021/07/03 10:42:09;;;;;;;4.03;3.73;;;29.00;39.40;;;;;;6345548;27;20225;-64
2021/07/03 10:45:16;;;;;;;4.70;4.30;;;29.00;38.80;;;;;;6350241;28;20248;-64
2021/07/03 10:48:22;;;;;;;4.43;4.03;;;29.10;38.80;;;;;;6349829;28;20635;-72
2021/07/03 10:51:32;;;;;;;4.60;4.20;;;29.10;38.60;;;;;;6336789;28;20267;-68
2021/07/03 10:54:35;;;;;;;4.43;4.03;;;29.20;38.40;;;;;;6343208;27;20239;-68
2021/07/03 10:57:43;;;;;;;4.03;3.73;;;29.20;38.70;;;;;;6335862;27;20229;-67
2021/07/03 11:00:49;;;;;;;4.40;4.00;;;29.30;39.50;;;;;;6330307;28;20226;-67
2021/07/03 11:03:55;;;;;;;5.47;4.67;;;28.50;40.20;;;;;;6324510;28;20222;-68
2021/07/03 11:07:01;;;;;;;4.43;4.03;;;28.40;40.40;;;;;;6323594;28;20244;-68
2021/07/03 11:10:09;;;;;;;4.33;3.93;;;28.60;40.60;;;;;;6324198;28;20236;-67
2021/07/03 11:13:21;;;;;;;4.40;4.10;;;28.70;39.40;;;;;;6323917;28;20225;-67
2021/07/03 11:16:24;;;;;;;4.50;4.17;;;28.60;40.50;;;;;;6324209;28;20230;-69
2021/07/03 11:19:28;;;;;;;5.43;4.70;;;29.00;40.60;;;;;;6323745;28;20234;-67
2021/07/03 11:22:33;;;;;;;4.37;3.97;;;29.00;42.40;;;;;;6324115;28;20230;-68
2021/07/03 11:25:39;;;;;;;4.93;4.53;;;29.10;41.90;;;;;;6343577;28;20220;-70
2021/07/03 11:28:47;;;;;;;6.50;4.90;;;29.00;41.40;;;;;;6372150;27;20669;-67
2021/07/03 11:31:50;;;;;;;5.03;4.63;;;28.70;41.40;;;;;;6350153;27;20239;-69
2021/07/03 11:34:57;;;;;;;4.33;3.97;;;28.10;42.80;;;;;;6352933;28;20582;-71
2021/07/03 11:38:04;;;;;;;4.50;4.10;;;28.00;42.50;;;;;;6354343;27;20630;-70
2021/07/03 11:41:07;;;;;;;4.50;4.10;;;28.20;42.80;;;;;;6379094;27;20180;-70
2021/07/03 11:44:10;;;;;;;4.43;4.13;;;28.20;42.00;;;;;;6377358;27;20684;-65
2021/07/03 11:47:13;;;;;;;4.20;3.90;;;28.20;42.90;;;;;;6377595;27;20807;-74
2021/07/03 11:50:29;;;;;;;4.27;3.87;;;28.40;42.90;;;;;;6377577;27;20211;-65
2021/07/03 11:53:34;;;;;;;5.47;4.40;;;28.30;42.80;;;;;;6377582;27;20239;-74
2021/07/03 11:56:37;;;;;;;7.10;4.20;;;28.30;43.50;;;;;;6368442;27;20228;-68
2021/07/03 11:59:41;;;;;;;4.87;4.47;;;28.40;43.80;;;;;;6373699;27;20361;-71
2021/07/03 12:02:45;;;;;;;4.90;4.50;;;28.50;42.50;;;;;;6360361;27;20228;-70
2021/07/03 12:05:53;;;;;;;4.50;4.07;;;28.70;41.60;;;;;;6377358;27;20673;-70
2021/07/03 12:08:57;;;;;;;3.87;3.57;;;28.50;41.60;;;;;;6379068;27;20673;-67
2021/07/03 12:12:01;;;;;;;5.10;4.53;;;28.60;42.00;;;;;;6379009;27;20247;-72
2021/07/03 12:15:11;;;;;;;3.83;3.53;;;28.70;41.60;;;;;;6379094;27;20228;-68
2021/07/03 12:18:25;;;;;;;4.90;4.50;;;28.60;41.50;;;;;;6378957;27;20220;-68
2021/07/03 12:21:31;;;;;;;5.00;4.50;;;28.80;42.00;;;;;;6379109;27;20235;-69
2021/07/03 12:24:36;;;;;;;5.83;4.60;;;28.20;42.70;;;;;;6378382;27;20240;-66
2021/07/03 12:27:39;;;;;;;4.60;4.30;;;28.20;43.20;;;;;;6378073;27;20247;-66
2021/07/03 12:30:42;;;;;;;5.50;5.10;;;28.20;43.30;;;;;;6378532;27;20224;-66
2021/07/03 12:33:46;;;;;;;4.67;4.33;;;28.30;42.80;;;;;;6369371;27;20220;-66
2021/07/03 12:36:51;;;;;;;4.37;3.97;;;28.30;41.90;;;;;;6336996;27;20701;-65
2021/07/03 12:39:56;;;;;;;4.27;3.97;;;28.30;42.60;;;;;;6337894;28;20224;-65
2021/07/03 12:43:00;;;;;;;4.87;4.47;;;28.30;42.20;;;;;;6351269;27;20228;-65
2021/07/03 12:46:10;;;;;;;4.47;4.07;;;28.40;42.80;;;;;;6350984;28;20732;-67
2021/07/03 12:49:14;;;;;;;4.70;4.30;;;28.10;42.90;;;;;;6350648;28;20231;-66
2021/07/03 12:52:17;;;;;;;4.57;4.20;;;28.30;43.50;;;;;;6369990;27;20568;-64
2021/07/03 12:55:22;;;;;;;4.50;4.10;;;28.30;43.60;;;;;;6356123;27;20236;-66
2021/07/03 12:58:26;;;;;;;4.70;4.30;;;28.30;44.00;;;;;;6350598;28;20666;-68
2021/07/03 13:01:41;;;;;;;4.67;4.27;;;28.40;44.10;;;;;;6329382;28;20226;-67
2021/07/03 13:04:45;;;;;;;4.77;4.37;;;28.60;43.20;;;;;;6325606;28;20290;-66
2021/07/03 13:07:48;;;;;;;4.87;4.47;;;28.50;43.20;;;;;;6326049;28;20230;-67
2021/07/03 13:10:53;;;;;;;5.13;3.93;;;28.60;42.80;;;;;;6325998;28;20240;-65
2021/07/03 13:13:57;;;;;;;5.23;4.67;;;28.70;42.80;;;;;;6324797;28;20363;-66
2021/07/03 13:17:00;;;;;;;5.20;4.80;;;28.80;43.10;;;;;;6324637;28;20225;-66
2021/07/03 13:20:04;;;;;;;4.40;4.00;;;28.70;43.70;;;;;;6325619;28;20281;-66
2021/07/03 13:23:07;;;;;;;5.20;4.70;;;28.70;43.50;;;;;;6325843;28;20201;-66
2021/07/03 13:26:13;;;;;;;4.27;3.97;;;28.80;43.40;;;;;;6337277;27;20236;-65
2021/07/03 13:29:17;;;;;;;4.70;4.30;;;28.80;42.90;;;;;;6351357;27;20225;-66
2021/07/03 13:32:20;;;;;;;4.10;3.80;;;28.80;44.00;;;;;;6351960;27;20244;-66
2021/07/03 13:35:25;;;;;;;4.67;4.37;;;28.60;43.90;;;;;;6351151;27;20255;-64
2021/07/03 13:38:28;;;;;;;5.93;5.10;;;28.40;43.50;;;;;;6352093;27;20232;-69
2021/07/03 13:41:34;;;;;;;4.90;4.20;;;28.50;44.50;;;;;;6349443;27;20859;-70
2021/07/03 13:44:37;;;;;;;5.23;4.80;;;28.60;43.70;;;;;;6350015;28;20681;-68
2021/07/03 13:47:40;;;;;;;5.97;5.47;;;28.60;43.30;;;;;;6350587;28;20236;-68
2021/07/03 13:50:44;;;;;;;5.17;4.80;;;28.50;43.20;;;;;;6349646;28;20224;-67
2021/07/03 13:53:47;;;;;;;5.30;4.30;;;28.40;42.90;;;;;;6351001;28;20220;-68
2021/07/03 13:56:52;;;;;;;4.37;4.00;;;28.30;43.20;;;;;;6351229;27;20229;-66
2021/07/03 14:00:00;;;;;;;4.60;4.20;;;28.30;43.00;;;;;;6350732;27;20681;-66
2021/07/03 14:03:04;;;;;;;5.13;4.67;;;28.50;46.10;;;;;;6346337;27;20221;-68
2021/07/03 14:06:07;;;;;;;5.13;4.73;;;28.60;44.50;;;;;;6350810;28;20237;-67
2021/07/03 14:09:10;;;;;;;4.80;4.40;;;28.40;44.60;;;;;;6350572;28;20263;-67
2021/07/03 14:12:15;;;;;;;9.10;4.47;;;28.50;44.80;;;;;;6350938;27;20297;-67
2021/07/03 14:15:18;;;;;;;5.20;4.80;;;28.40;45.00;;;;;;6350041;28;20228;-68
2021/07/03 14:18:21;;;;;;;4.60;4.20;;;28.40;44.20;;;;;;6350564;28;20213;-67
2021/07/03 14:21:24;;;;;;;4.27;3.97;;;28.10;44.60;;;;;;6350190;28;20224;-67
2021/07/03 14:24:28;;;;;;;4.13;3.83;;;27.90;45.60;;;;;;6350698;28;20239;-72
2021/07/03 14:27:32;;;;;;;4.40;4.10;;;28.00;45.30;;;;;;6349475;27;20225;-71
2021/07/03 14:30:37;;;;;;;4.63;4.33;;;28.20;45.10;;;;;;6350097;27;20239;-67
2021/07/03 14:33:40;;;;;;;4.73;4.33;;;28.10;44.70;;;;;;6349868;27;20229;-70
2021/07/03 14:36:44;;;;;;;5.00;4.50;;;28.30;44.40;;;;;;6350455;27;20225;-71
2021/07/03 14:39:47;;;;;;;4.80;4.40;;;28.40;44.80;;;;;;6349977;27;20696;-70
2021/07/03 14:42:54;;;;;;;4.37;4.07;;;28.50;44.40;;;;;;6350524;27;20235;-70
2021/07/03 14:45:57;;;;;;;4.07;3.77;;;28.50;44.70;;;;;;6349842;27;20686;-71
2021/07/03 14:49:00;;;;;;;5.40;4.40;;;28.60;44.50;;;;;;6349794;27;20228;-69
2021/07/03 14:52:04;;;;;;;4.80;4.40;;;28.70;44.20;;;;;;6350002;27;20228;-70
2021/07/03 14:55:09;;;;;;;4.93;4.53;;;28.70;43.70;;;;;;6349359;27;20233;-69
2021/07/03 14:58:14;;;;;;;5.07;4.60;;;28.40;44.30;;;;;;6349262;27;20225;-70
2021/07/03 15:01:18;;;;;;;4.30;4.00;;;28.40;44.40;;;;;;6349055;27;20561;-70
2021/07/03 15:04:21;;;;;;;4.40;4.10;;;28.60;44.50;;;;;;6349798;27;20701;-70
2021/07/03 15:07:25;;;;;;;5.20;4.80;;;28.60;44.50;;;;;;6349184;27;20307;-70
2021/07/03 15:10:28;;;;;;;5.20;4.77;;;28.70;44.40;;;;;;6349253;27;20225;-71
2021/07/03 15:13:33;;;;;;;5.10;4.60;;;28.80;44.20;;;;;;6348722;27;20237;-70
2021/07/03 15:16:37;;;;;;;5.47;4.97;;;28.80;44.80;;;;;;6348194;27;20247;-70
2021/07/03 15:19:40;;;;;;;4.43;4.07;;;28.80;44.50;;;;;;6348630;27;20229;-69
2021/07/03 15:22:44;;;;;;;27.03;7.80;;;28.80;44.90;;;;;;6349312;27;20240;-66
2021/07/03 15:25:48;;;;;;;4.60;4.20;;;28.90;46.10;;;;;;6348783;27;20235;-67
2021/07/03 15:28:52;;;;;;;4.70;4.17;;;28.90;44.70;;;;;;6347995;27;20233;-64
2021/07/03 15:31:56;;;;;;;4.00;3.70;;;29.00;44.50;;;;;;6348820;28;20217;-66
2021/07/03 15:35:00;;;;;;;5.63;4.00;;;28.80;44.50;;;;;;6373194;27;20303;-68
2021/07/03 15:38:04;;;;;;;4.23;3.93;;;28.90;45.20;;;;;;6375448;27;20212;-67
2021/07/03 15:41:09;;;;;;;4.47;4.07;;;29.10;44.90;;;;;;6374201;27;20196;-63
2021/07/03 15:44:16;;;;;;;4.60;4.30;;;29.10;44.50;;;;;;6374582;27;20231;-67
2021/07/03 15:47:19;;;;;;;5.60;4.13;;;29.10;44.30;;;;;;6374354;27;20218;-73
2021/07/03 15:50:24;;;;;;;5.30;4.80;;;29.10;44.20;;;;;;6372718;27;20578;-66
2021/07/03 15:53:27;;;;;;;4.20;3.90;;;29.10;44.20;;;;;;6372263;27;20227;-65
2021/07/03 15:56:30;;;;;;;5.00;4.60;;;29.10;44.00;;;;;;6372093;27;20566;-66
2021/07/03 15:59:36;;;;;;;4.10;3.80;;;29.10;44.00;;;;;;6374149;27;20219;-66